createdAt,value
2022-07-27T00:01:14.384Z,15.50
2022-07-27T00:03:42.973Z,8.90
2022-07-27T00:06:11.166Z,7.50
2022-07-27T00:08:38.969Z,9.00
2022-07-27T00:11:08.617Z,9.50
2022-07-27T00:13:36.636Z,11.90
2022-07-27T00:16:05.115Z,9.00
2022-07-27T00:18:33.202Z,10.20
2022-07-27T00:21:01.075Z,8.00
2022-07-27T00:23:28.845Z,11.10
2022-07-27T00:25:57.562Z,12.80
2022-07-27T00:28:25.296Z,18.90
2022-07-27T00:30:53.167Z,7.20
2022-07-27T00:33:21.352Z,12.00
2022-07-27T00:35:49.397Z,8.20
2022-07-27T00:38:17.118Z,10.70
2022-07-27T00:40:45.256Z,10.50
2022-07-27T00:43:13.278Z,9.50
2022-07-27T00:45:41.843Z,11.50
2022-07-27T00:48:09.834Z,7.10
2022-07-27T00:50:38.802Z,8.70
2022-07-27T00:53:08.775Z,9.40
2022-07-27T00:55:37.164Z,8.50
2022-07-27T00:58:08.684Z,7.20
2022-07-27T01:00:37.763Z,9.00
2022-07-27T01:03:08.676Z,11.40
2022-07-27T01:05:42.925Z,8.30
2022-07-27T01:08:14.074Z,10.90
2022-07-27T01:10:43.636Z,11.30
2022-07-27T01:13:12.482Z,10.30
2022-07-27T01:15:42.498Z,7.90
2022-07-27T01:18:27.525Z,6.60
2022-07-27T01:20:56.075Z,4.70
2022-07-27T01:23:25.553Z,7.60
2022-07-27T01:25:54.144Z,6.30
2022-07-27T01:28:22.088Z,5.40
2022-07-27T01:30:50.659Z,4.40
2022-07-27T01:33:18.640Z,5.30
2022-07-27T01:35:46.506Z,3.90
2022-07-27T01:38:14.275Z,6.80
2022-07-27T01:40:42.228Z,5.80
2022-07-27T01:43:10.022Z,5.60
2022-07-27T01:45:40.037Z,4.10
2022-07-27T01:48:07.807Z,7.90
2022-07-27T01:50:35.625Z,4.50
2022-07-27T01:53:03.746Z,4.10
2022-07-27T01:55:38.654Z,6.70
2022-07-27T01:58:07.987Z,4.80
2022-07-27T02:00:37.429Z,3.40
2022-07-27T02:05:34.807Z,3.40
2022-07-27T02:08:03.912Z,5.60
2022-07-27T02:10:32.330Z,5.90
2022-07-27T02:13:00.285Z,5.70
2022-07-27T02:15:42.838Z,5.00
2022-07-27T02:18:33.218Z,4.00
2022-07-27T02:20:59.076Z,3.20
2022-07-27T02:23:26.965Z,5.50
2022-07-27T02:25:54.781Z,5.10
2022-07-27T02:28:23.331Z,3.60
2022-07-27T02:30:51.162Z,3.00
2022-07-27T02:33:19.105Z,4.70
2022-07-27T02:35:47.382Z,3.90
2022-07-27T02:38:15.306Z,9.00
2022-07-27T02:40:43.268Z,2.80
2022-07-27T02:43:13.053Z,4.10
2022-07-27T02:45:41.088Z,4.20
2022-07-27T02:48:08.872Z,4.80
2022-07-27T02:50:36.707Z,4.10
2022-07-27T02:53:04.472Z,4.30
2022-07-27T02:55:32.245Z,5.30
2022-07-27T02:58:00.111Z,3.70
2022-07-27T03:00:28.049Z,3.20
2022-07-27T03:02:55.904Z,8.60
2022-07-27T03:05:24.178Z,5.20
2022-07-27T03:07:51.929Z,4.30
2022-07-27T03:10:19.809Z,2.60
2022-07-27T03:12:47.764Z,3.00
2022-07-27T03:15:15.935Z,2.90
2022-07-27T03:17:43.810Z,6.10
2022-07-27T03:20:15.263Z,3.40
2022-07-27T03:22:43.939Z,3.50
2022-07-27T03:25:11.792Z,2.90
2022-07-27T03:27:39.586Z,2.70
2022-07-27T03:30:08.492Z,2.20
2022-07-27T03:32:36.343Z,4.60
2022-07-27T03:35:04.735Z,2.60
2022-07-27T03:37:32.975Z,3.00
2022-07-27T03:40:00.780Z,2.30
2022-07-27T03:42:28.901Z,3.00
2022-07-27T03:44:56.688Z,2.50
2022-07-27T03:47:25.053Z,4.90
2022-07-27T03:49:53.332Z,3.10
2022-07-27T03:52:21.532Z,4.90
2022-07-27T03:54:49.540Z,5.80
2022-07-27T03:57:17.336Z,7.20
2022-07-27T03:59:45.648Z,6.40
2022-07-27T04:02:13.624Z,3.10
2022-07-27T04:04:41.685Z,3.90
2022-07-27T04:07:10.449Z,2.80
2022-07-27T04:09:39.528Z,3.00
2022-07-27T04:12:09.629Z,3.20
2022-07-27T04:14:37.743Z,7.40
2022-07-27T04:17:05.586Z,6.20
2022-07-27T04:19:34.411Z,5.70
2022-07-27T04:22:02.365Z,5.30
2022-07-27T04:24:30.298Z,11.40
2022-07-27T04:26:58.360Z,12.30
2022-07-27T04:29:26.170Z,13.40
2022-07-27T04:31:54.210Z,10.20
2022-07-27T04:34:22.070Z,8.20
2022-07-27T04:36:50.849Z,8.50
2022-07-27T04:39:18.634Z,9.70
2022-07-27T04:41:47.378Z,6.80
2022-07-27T04:44:15.219Z,5.40
2022-07-27T04:46:43.206Z,3.70
2022-07-27T04:49:11.330Z,4.90
2022-07-27T04:51:43.075Z,5.30
2022-07-27T04:54:12.090Z,3.90
2022-07-27T04:56:40.033Z,4.60
2022-07-27T04:59:07.924Z,3.30
2022-07-27T05:01:35.859Z,3.00
2022-07-27T05:04:05.283Z,4.20
2022-07-27T05:09:01.685Z,2.70
2022-07-27T05:11:29.646Z,5.50
2022-07-27T05:13:57.779Z,4.00
2022-07-27T05:16:28.836Z,3.00
2022-07-27T05:18:57.492Z,2.20
2022-07-27T05:21:26.171Z,3.60
2022-07-27T05:23:54.197Z,2.10
2022-07-27T05:26:23.173Z,2.50
2022-07-27T05:28:51.199Z,3.20
2022-07-27T05:31:19.254Z,3.00
2022-07-27T05:33:49.260Z,2.00
2022-07-27T05:36:18.420Z,1.60
2022-07-27T05:38:46.267Z,4.70
2022-07-27T05:41:14.533Z,3.80
2022-07-27T05:43:42.297Z,3.40
2022-07-27T05:46:10.938Z,2.50
2022-07-27T05:48:38.979Z,4.30
2022-07-27T05:51:06.854Z,4.00
2022-07-27T05:53:35.387Z,2.90
2022-07-27T05:56:03.296Z,1.30
2022-07-27T05:58:31.355Z,2.30
2022-07-27T06:00:59.662Z,1.50
2022-07-27T06:03:28.018Z,9.20
2022-07-27T06:06:15.846Z,3.60
2022-07-27T06:08:45.245Z,4.60
2022-07-27T06:11:13.914Z,7.30
2022-07-27T06:13:41.998Z,2.10
2022-07-27T06:16:10.811Z,15.00
2022-07-27T06:18:39.268Z,5.40
2022-07-27T06:21:07.576Z,7.60
2022-07-27T06:23:35.487Z,2.20
2022-07-27T06:28:33.094Z,4.40
2022-07-27T06:31:01.242Z,2.80
2022-07-27T06:33:30.885Z,2.00
2022-07-27T06:36:00.003Z,2.50
2022-07-27T06:38:29.887Z,3.70
2022-07-27T06:40:58.469Z,4.10
2022-07-27T06:43:28.555Z,1.70
2022-07-27T06:45:58.247Z,2.20
2022-07-27T06:48:26.664Z,2.00
2022-07-27T06:50:54.708Z,3.40
2022-07-27T06:53:22.816Z,2.80
2022-07-27T06:55:50.747Z,3.90
2022-07-27T06:58:19.242Z,4.10
2022-07-27T07:00:47.863Z,2.80
2022-07-27T07:03:16.018Z,4.10
2022-07-27T07:05:46.590Z,10.40
2022-07-27T07:08:15.064Z,2.70
2022-07-27T07:10:45.475Z,7.80
2022-07-27T07:13:13.461Z,2.80
2022-07-27T07:15:42.973Z,2.60
2022-07-27T07:18:11.907Z,3.00
2022-07-27T07:20:40.308Z,5.40
2022-07-27T07:23:08.727Z,1.20
2022-07-27T07:25:37.409Z,2.80
2022-07-27T07:28:07.315Z,3.80
2022-07-27T07:30:37.687Z,5.30
2022-07-27T07:33:05.604Z,2.00
2022-07-27T07:35:34.054Z,3.50
2022-07-27T07:38:02.159Z,3.60
2022-07-27T07:40:46.745Z,4.20
2022-07-27T07:43:14.875Z,2.90
2022-07-27T07:45:51.401Z,3.90
2022-07-27T07:48:23.619Z,3.90
2022-07-27T07:50:53.927Z,2.00
2022-07-27T07:53:23.408Z,2.90
2022-07-27T07:55:52.632Z,3.50
2022-07-27T07:58:20.567Z,4.30
2022-07-27T08:00:49.060Z,2.90
2022-07-27T08:03:17.420Z,2.70
2022-07-27T08:05:45.324Z,2.50
2022-07-27T08:08:13.564Z,3.00
2022-07-27T08:10:41.450Z,2.20
2022-07-27T08:13:09.419Z,3.10
2022-07-27T08:15:37.988Z,4.10
2022-07-27T08:18:06.280Z,4.20
2022-07-27T08:20:34.631Z,4.80
2022-07-27T08:23:03.370Z,3.50
2022-07-27T08:25:32.066Z,3.60
2022-07-27T08:28:00.347Z,4.20
2022-07-27T08:30:33.076Z,3.90
2022-07-27T08:33:03.397Z,6.10
2022-07-27T08:35:33.631Z,5.70
2022-07-27T08:38:03.344Z,3.00
2022-07-27T08:40:47.598Z,10.60
2022-07-27T08:43:24.832Z,2.90
2022-07-27T08:45:55.377Z,3.50
2022-07-27T08:48:25.758Z,5.60
2022-07-27T08:50:54.679Z,2.30
2022-07-27T08:55:52.554Z,2.50
2022-07-27T08:58:20.421Z,3.20
2022-07-27T09:00:50.282Z,6.60
2022-07-27T09:03:21.471Z,2.90
2022-07-27T09:05:54.925Z,4.80
2022-07-27T09:08:31.077Z,6.20
2022-07-27T09:11:00.368Z,6.80
2022-07-27T09:13:33.452Z,4.30
2022-07-27T09:16:21.199Z,3.90
2022-07-27T09:18:59.031Z,6.00
2022-07-27T09:21:27.013Z,2.40
2022-07-27T09:24:17.809Z,1.90
2022-07-27T09:26:51.261Z,7.80
2022-07-27T09:29:19.547Z,3.80
2022-07-27T09:31:51.857Z,4.00
2022-07-27T09:34:28.710Z,2.80
2022-07-27T09:36:58.294Z,1.80
2022-07-27T09:39:27.850Z,2.90
2022-07-27T09:41:58.386Z,2.90
2022-07-27T09:44:43.878Z,5.50
2022-07-27T09:47:28.044Z,5.20
2022-07-27T09:50:02.525Z,4.80
2022-07-27T09:52:31.003Z,4.20
2022-07-27T09:55:04.097Z,5.60
2022-07-27T09:57:51.312Z,7.90
2022-07-27T10:00:20.230Z,8.90
2022-07-27T10:02:50.258Z,10.80
2022-07-27T10:05:21.543Z,11.50
2022-07-27T10:07:51.280Z,12.40
2022-07-27T10:10:20.044Z,9.10
2022-07-27T10:12:53.983Z,6.20
2022-07-27T10:15:24.949Z,6.20
2022-07-27T10:18:09.214Z,6.90
2022-07-27T10:20:40.218Z,9.00
2022-07-27T10:23:09.277Z,9.40
2022-07-27T10:25:38.255Z,7.80
2022-07-27T10:28:18.173Z,7.10
2022-07-27T10:30:49.449Z,6.80
2022-07-27T10:33:42.924Z,5.20
2022-07-27T10:36:24.260Z,3.30
2022-07-27T10:38:56.673Z,2.30
2022-07-27T10:41:26.215Z,1.60
2022-07-27T10:44:18.649Z,1.20
2022-07-27T10:47:00.656Z,1.00
2022-07-27T10:49:29.687Z,0.70
2022-07-27T10:51:59.306Z,0.50
2022-07-27T10:54:36.578Z,0.40
2022-07-27T11:02:41.061Z,0.50
2022-07-27T11:05:32.853Z,0.40
2022-07-27T11:10:48.619Z,0.60
2022-07-27T11:13:21.538Z,0.90
2022-07-27T11:19:10.987Z,0.50
2022-07-27T11:24:18.820Z,0.30
2022-07-27T11:26:50.450Z,0.30
2022-07-27T11:29:20.539Z,0.20
2022-07-27T11:31:56.457Z,0.10
2022-07-27T11:34:33.796Z,0.10
2022-07-27T11:37:05.523Z,0.10
2022-07-27T11:39:59.374Z,0.10
2022-07-27T11:42:24.000Z,0.10
2022-07-27T11:44:53.401Z,0.10
2022-07-27T11:47:24.141Z,0.50
2022-07-27T11:49:52.497Z,1.50
2022-07-27T11:54:51.680Z,2.70
2022-07-27T11:57:20.968Z,2.80
2022-07-27T11:59:48.896Z,5.60
2022-07-27T12:02:20.488Z,2.20
2022-07-27T12:04:50.533Z,2.50
2022-07-27T12:07:29.142Z,3.90
2022-07-27T12:09:59.055Z,1.90
2022-07-27T12:12:28.665Z,5.50
2022-07-27T12:14:58.980Z,5.80
2022-07-27T12:17:27.239Z,2.70
2022-07-27T12:20:02.773Z,3.80
2022-07-27T12:22:40.483Z,3.60
2022-07-27T12:25:16.202Z,4.10
2022-07-27T12:27:58.105Z,3.60
2022-07-27T12:30:40.254Z,1.70
2022-07-27T12:33:37.812Z,2.80
2022-07-27T12:36:08.009Z,4.50
2022-07-27T12:38:44.457Z,1.40
2022-07-27T12:41:24.927Z,4.40
2022-07-27T12:44:09.842Z,1.60
2022-07-27T12:46:54.074Z,5.00
2022-07-27T12:49:25.617Z,1.80
2022-07-27T12:51:53.639Z,2.10
2022-07-27T12:54:24.641Z,2.30
2022-07-27T12:56:52.419Z,4.70
2022-07-27T12:59:22.147Z,2.40
2022-07-27T13:01:51.431Z,3.50
2022-07-27T13:04:19.410Z,5.20
2022-07-27T13:06:47.628Z,2.80
2022-07-27T13:09:16.252Z,5.00
2022-07-27T13:11:47.886Z,1.60
2022-07-27T13:14:16.314Z,3.10
2022-07-27T13:16:44.326Z,3.50
2022-07-27T13:19:15.530Z,4.10
2022-07-27T13:21:43.851Z,1.70
2022-07-27T13:24:11.707Z,4.30
2022-07-27T13:26:41.037Z,3.40
2022-07-27T13:29:08.896Z,2.20
2022-07-27T13:31:37.264Z,4.20
2022-07-27T13:34:05.322Z,5.90
2022-07-27T13:36:33.101Z,1.80
2022-07-27T13:39:00.976Z,2.20
2022-07-27T13:41:28.763Z,2.60
2022-07-27T13:43:56.503Z,2.30
2022-07-27T13:46:24.683Z,2.40
2022-07-27T13:48:52.697Z,3.00
2022-07-27T13:51:20.521Z,3.20
2022-07-27T13:53:48.769Z,3.40
2022-07-27T13:56:16.720Z,3.00
2022-07-27T13:58:51.643Z,1.00
2022-07-27T14:01:19.933Z,3.00
2022-07-27T14:06:16.501Z,2.00
2022-07-27T14:08:44.654Z,1.90
2022-07-27T14:11:13.126Z,2.50
2022-07-27T14:13:41.162Z,1.90
2022-07-27T14:16:10.251Z,2.00
2022-07-27T14:18:38.625Z,1.10
2022-07-27T14:21:07.850Z,2.70
2022-07-27T14:23:37.458Z,2.40
2022-07-27T14:26:07.747Z,3.30
2022-07-27T14:28:36.565Z,2.20
2022-07-27T14:31:08.604Z,1.70
2022-07-27T14:33:37.316Z,2.20
2022-07-27T14:36:06.822Z,7.10
2022-07-27T14:38:36.967Z,2.80
2022-07-27T14:41:05.699Z,2.30
2022-07-27T14:43:34.086Z,3.10
2022-07-27T14:46:02.008Z,0.90
2022-07-27T14:49:03.166Z,1.90
2022-07-27T14:51:17.655Z,1.00
2022-07-27T14:53:46.243Z,1.80
2022-07-27T14:56:14.087Z,1.20
2022-07-27T14:58:42.331Z,3.00
2022-07-27T15:01:10.302Z,4.30
2022-07-27T15:03:38.510Z,1.20
2022-07-27T15:06:06.352Z,1.50
2022-07-27T15:08:34.749Z,7.60
2022-07-27T15:11:02.689Z,1.10
2022-07-27T15:13:30.864Z,2.30
2022-07-27T15:15:58.820Z,10.50
2022-07-27T15:18:27.144Z,5.60
2022-07-27T15:20:55.278Z,3.00
2022-07-27T15:23:23.972Z,1.10
2022-07-27T15:25:52.418Z,1.40
2022-07-27T15:28:21.598Z,3.80
2022-07-27T15:30:49.758Z,1.00
2022-07-27T15:33:17.502Z,1.30
2022-07-27T15:35:45.715Z,3.20
2022-07-27T15:38:13.477Z,4.90
2022-07-27T15:40:44.210Z,1.60
2022-07-27T15:43:14.662Z,4.30
2022-07-27T15:45:47.849Z,1.70
2022-07-27T15:48:17.998Z,2.10
2022-07-27T15:50:49.028Z,4.10
2022-07-27T15:53:18.809Z,1.20
2022-07-27T15:55:47.670Z,1.90
2022-07-27T15:58:19.389Z,2.40
2022-07-27T16:00:50.003Z,1.30
2022-07-27T16:03:19.002Z,2.50
2022-07-27T16:05:50.008Z,1.90
2022-07-27T16:08:18.873Z,1.90
2022-07-27T16:10:47.962Z,4.20
2022-07-27T16:13:15.927Z,2.20
2022-07-27T16:16:03.098Z,1.50
2022-07-27T16:18:35.325Z,1.30
2022-07-27T16:21:07.259Z,2.10
2022-07-27T16:23:35.361Z,1.30
2022-07-27T16:26:05.794Z,1.30
2022-07-27T16:28:38.846Z,2.80
2022-07-27T16:31:10.658Z,1.70
2022-07-27T16:33:38.824Z,12.30
2022-07-27T16:36:08.582Z,2.40
2022-07-27T16:38:37.897Z,3.10
2022-07-27T16:41:17.449Z,3.30
2022-07-27T16:43:45.256Z,3.70
2022-07-27T16:46:13.531Z,4.10
2022-07-27T16:48:43.379Z,2.60
2022-07-27T16:51:12.974Z,5.80
2022-07-27T16:56:10.987Z,2.20
2022-07-27T16:58:39.387Z,1.70
2022-07-27T17:01:08.054Z,2.20
2022-07-27T17:03:36.700Z,3.20
2022-07-27T17:06:06.808Z,3.00
2022-07-27T17:08:37.082Z,2.50
2022-07-27T17:11:05.445Z,4.20
2022-07-27T17:13:36.845Z,1.30
2022-07-27T17:16:08.389Z,3.30
2022-07-27T17:18:40.140Z,1.10
2022-07-27T17:21:12.626Z,3.20
2022-07-27T17:23:42.159Z,5.10
2022-07-27T17:26:10.558Z,2.50
2022-07-27T17:28:41.679Z,2.40
2022-07-27T17:31:11.440Z,1.40
2022-07-27T17:33:40.598Z,4.00
2022-07-27T17:36:14.545Z,2.20
2022-07-27T17:38:44.451Z,1.70
2022-07-27T17:41:13.213Z,4.00
2022-07-27T17:43:41.807Z,1.30
2022-07-27T17:46:10.994Z,2.20
2022-07-27T17:51:08.320Z,2.00
2022-07-27T17:56:05.022Z,2.80
2022-07-27T17:58:33.226Z,2.00
2022-07-27T18:01:01.061Z,5.00
2022-07-27T18:03:28.881Z,1.90
2022-07-27T18:05:56.837Z,2.90
2022-07-27T18:08:24.660Z,2.90
2022-07-27T18:10:52.583Z,6.80
2022-07-27T18:13:20.513Z,6.60
2022-07-27T18:15:48.940Z,4.60
2022-07-27T18:18:21.291Z,2.90
2022-07-27T18:20:52.316Z,6.40
2022-07-27T18:23:21.835Z,3.70
2022-07-27T18:25:50.237Z,3.40
2022-07-27T18:28:19.038Z,3.30
2022-07-27T18:30:49.086Z,4.00
2022-07-27T18:33:17.521Z,3.70
2022-07-27T18:35:46.501Z,4.10
2022-07-27T18:38:15.158Z,3.60
2022-07-27T18:40:46.198Z,5.10
2022-07-27T18:43:15.020Z,7.50
2022-07-27T18:45:43.257Z,5.20
2022-07-27T18:48:11.087Z,4.60
2022-07-27T18:50:40.304Z,6.90
2022-07-27T18:53:09.144Z,4.80
2022-07-27T18:55:37.807Z,8.10
2022-07-27T18:58:07.065Z,3.50
2022-07-27T19:00:35.080Z,3.10
2022-07-27T19:03:03.562Z,5.20
2022-07-27T19:05:41.402Z,5.70
2022-07-27T19:08:13.187Z,5.90
2022-07-27T19:10:42.959Z,4.50
2022-07-27T19:13:11.688Z,7.70
2022-07-27T19:15:40.095Z,3.90
2022-07-27T19:18:08.381Z,3.10
2022-07-27T19:20:37.809Z,8.20
2022-07-27T19:23:06.505Z,7.40
2022-07-27T19:25:34.891Z,5.30
2022-07-27T19:28:03.784Z,3.50
2022-07-27T19:30:31.712Z,4.50
2022-07-27T19:33:00.226Z,6.10
2022-07-27T19:35:28.324Z,3.70
2022-07-27T19:37:56.214Z,5.10
2022-07-27T19:43:12.606Z,6.60
2022-07-27T19:45:41.216Z,6.70
2022-07-27T19:48:09.236Z,5.90
2022-07-27T19:50:37.436Z,4.10
2022-07-27T19:53:05.391Z,4.00
2022-07-27T19:55:33.692Z,3.90
2022-07-27T19:58:01.846Z,2.90
2022-07-27T20:00:30.205Z,3.40
2022-07-27T20:02:58.122Z,4.40
2022-07-27T20:05:26.086Z,6.90
2022-07-27T20:07:54.018Z,3.20
2022-07-27T20:10:22.042Z,5.30
2022-07-27T20:12:49.876Z,3.10
2022-07-27T20:15:18.423Z,3.70
2022-07-27T20:17:46.760Z,6.20
2022-07-27T20:20:14.637Z,4.90
2022-07-27T20:22:42.973Z,5.70
2022-07-27T20:25:10.975Z,5.80
2022-07-27T20:27:38.995Z,3.50
2022-07-27T20:30:07.868Z,6.10
2022-07-27T20:32:35.723Z,3.30
2022-07-27T20:35:04.205Z,4.80
2022-07-27T20:37:32.795Z,6.50
2022-07-27T20:40:00.930Z,5.40
2022-07-27T20:42:28.874Z,4.70
2022-07-27T20:44:58.937Z,5.90
2022-07-27T20:47:29.848Z,8.00
2022-07-27T20:50:02.139Z,3.60
2022-07-27T20:52:30.191Z,5.10
2022-07-27T20:54:58.036Z,4.40
2022-07-27T20:57:25.943Z,4.60
2022-07-27T20:59:54.607Z,8.40
2022-07-27T21:02:22.543Z,3.80
2022-07-27T21:04:51.979Z,6.20
2022-07-27T21:09:49.678Z,5.20
2022-07-27T21:12:17.598Z,6.10
2022-07-27T21:14:45.392Z,6.90
2022-07-27T21:17:13.587Z,12.10
2022-07-27T21:19:41.431Z,8.30
2022-07-27T21:22:09.210Z,6.50
2022-07-27T21:24:37.002Z,8.30
2022-07-27T21:27:05.062Z,6.20
2022-07-27T21:29:33.306Z,9.90
2022-07-27T21:32:03.440Z,6.30
2022-07-27T21:34:31.356Z,5.00
2022-07-27T21:36:59.463Z,6.20
2022-07-27T21:39:29.096Z,9.40
2022-07-27T21:42:01.843Z,6.50
2022-07-27T21:44:30.508Z,4.80
2022-07-27T21:46:58.724Z,3.70
2022-07-27T21:49:34.538Z,3.70
2022-07-27T21:52:03.766Z,6.30
2022-07-27T21:54:31.639Z,5.10
2022-07-27T21:56:59.487Z,5.00
2022-07-27T21:59:27.231Z,4.10
2022-07-27T22:01:55.040Z,5.80
2022-07-27T22:04:23.210Z,5.60
2022-07-27T22:06:51.288Z,4.50
2022-07-27T22:09:20.305Z,5.40
2022-07-27T22:11:48.359Z,3.80
2022-07-27T22:14:16.899Z,3.20
2022-07-27T22:16:45.081Z,3.60
2022-07-27T22:19:14.213Z,3.50
2022-07-27T22:21:42.123Z,4.50
2022-07-27T22:24:10.313Z,4.10
2022-07-27T22:26:38.512Z,5.20
2022-07-27T22:29:06.860Z,4.20
2022-07-27T22:31:34.673Z,4.90
2022-07-27T22:34:02.675Z,4.60
2022-07-27T22:36:32.639Z,3.50
2022-07-27T22:39:00.517Z,5.30
2022-07-27T22:41:28.663Z,3.70
2022-07-27T22:43:56.489Z,5.80
2022-07-27T22:46:25.955Z,5.30
2022-07-27T22:48:55.660Z,4.30
2022-07-27T22:51:23.853Z,4.60
2022-07-27T22:53:51.685Z,3.40
2022-07-27T22:56:19.761Z,4.10
2022-07-27T22:58:48.070Z,2.20
2022-07-27T23:01:45.485Z,4.80
2022-07-27T23:04:04.127Z,4.40
2022-07-27T23:06:31.927Z,3.80
2022-07-27T23:08:59.675Z,3.70
2022-07-27T23:11:27.661Z,3.80
2022-07-27T23:13:55.591Z,3.10
2022-07-27T23:16:23.489Z,5.70
2022-07-27T23:18:51.754Z,3.90
2022-07-27T23:21:19.684Z,3.90
2022-07-27T23:23:53.562Z,3.50
2022-07-27T23:26:25.698Z,4.50
2022-07-27T23:28:54.052Z,7.70
2022-07-27T23:31:23.386Z,4.00
2022-07-27T23:33:51.567Z,4.70
2022-07-27T23:36:19.421Z,4.00
2022-07-27T23:38:47.770Z,5.00
2022-07-27T23:41:16.750Z,6.20
2022-07-27T23:43:45.007Z,4.20
2022-07-27T23:46:13.114Z,2.90
2022-07-27T23:48:41.174Z,3.80
2022-07-27T23:51:09.315Z,3.80
2022-07-27T23:53:37.101Z,6.30
2022-07-27T23:56:05.305Z,3.40
2022-07-27T23:58:33.145Z,6.20
